createdAt,value
2018-11-03T00:00:44.884Z,7.13
2018-11-03T00:06:03.449Z,7.37
2018-11-03T00:11:22.002Z,6.85
2018-11-03T00:16:40.500Z,7.17
2018-11-03T00:21:59.052Z,7.37
2018-11-03T00:27:17.555Z,7.00
2018-11-03T00:32:36.068Z,8.17
2018-11-03T00:37:54.612Z,8.50
2018-11-03T00:43:13.100Z,6.80
2018-11-03T00:48:31.650Z,7.17
2018-11-03T00:53:50.257Z,7.27
2018-11-03T00:59:08.815Z,7.37
2018-11-03T01:04:27.412Z,7.67
2018-11-03T01:09:45.951Z,7.50
2018-11-03T01:15:04.638Z,7.63
2018-11-03T01:20:23.207Z,8.20
2018-11-03T01:25:41.726Z,7.45
2018-11-03T01:31:00.260Z,8.23
2018-11-03T01:36:18.904Z,8.23
2018-11-03T01:41:37.451Z,8.67
2018-11-03T01:46:55.951Z,7.72
2018-11-03T01:52:14.487Z,8.47
2018-11-03T01:57:33.018Z,7.57
2018-11-03T02:02:51.530Z,8.10
2018-11-03T02:08:10.082Z,8.13
2018-11-03T02:13:28.573Z,8.30
2018-11-03T02:18:47.126Z,8.27
2018-11-03T02:24:06.153Z,7.10
2018-11-03T02:29:24.687Z,8.10
2018-11-03T02:34:43.234Z,7.77
2018-11-03T02:40:01.791Z,6.97
2018-11-03T02:45:20.351Z,7.47
2018-11-03T02:50:38.883Z,8.03
2018-11-03T02:55:57.461Z,8.03
2018-11-03T03:01:16.043Z,8.40
2018-11-03T03:06:34.610Z,7.97
2018-11-03T03:11:53.222Z,7.83
2018-11-03T03:17:11.728Z,8.47
2018-11-03T03:22:30.200Z,8.08
2018-11-03T03:27:48.784Z,7.30
2018-11-03T03:33:07.335Z,7.83
2018-11-03T03:38:25.857Z,7.90
2018-11-03T03:43:44.318Z,7.40
2018-11-03T03:49:02.804Z,7.47
2018-11-03T03:54:21.327Z,7.73
2018-11-03T03:59:39.932Z,7.45
2018-11-03T04:04:58.467Z,6.80
2018-11-03T04:10:16.974Z,7.17
2018-11-03T04:15:35.497Z,7.33
2018-11-03T04:20:53.999Z,8.70
2018-11-03T04:26:12.508Z,7.50
2018-11-03T04:31:31.020Z,7.80
2018-11-03T04:36:49.539Z,7.40
2018-11-03T04:42:08.068Z,7.10
2018-11-03T04:47:27.164Z,7.10
2018-11-03T04:52:45.730Z,7.80
2018-11-03T04:58:04.232Z,7.37
2018-11-03T05:03:22.792Z,9.10
2018-11-03T05:08:41.359Z,9.33
2018-11-03T05:13:59.882Z,8.73
2018-11-03T05:19:18.395Z,9.03
2018-11-03T05:24:36.943Z,9.60
2018-11-03T05:29:55.590Z,10.00
2018-11-03T05:35:14.191Z,10.55
2018-11-03T05:40:32.754Z,9.70
2018-11-03T05:45:51.296Z,9.60
2018-11-03T05:51:09.943Z,10.17
2018-11-03T05:56:28.504Z,8.87
2018-11-03T06:01:47.139Z,10.07
2018-11-03T06:07:05.718Z,10.00
2018-11-03T06:12:24.214Z,9.27
2018-11-03T06:17:42.747Z,9.93
2018-11-03T06:23:01.432Z,10.10
2018-11-03T06:28:20.032Z,10.80
2018-11-03T06:33:38.634Z,10.60
2018-11-03T06:39:03.853Z,12.87
2018-11-03T06:44:22.251Z,12.17
2018-11-03T06:49:40.793Z,10.97
2018-11-03T06:54:59.291Z,11.90
2018-11-03T07:00:17.831Z,11.90
2018-11-03T07:05:37.112Z,13.00
2018-11-03T07:10:55.744Z,13.37
2018-11-03T07:16:14.275Z,15.20
2018-11-03T07:21:33.116Z,14.37
2018-11-03T07:26:51.579Z,15.73
2018-11-03T07:32:10.141Z,16.10
2018-11-03T07:37:28.648Z,16.73
2018-11-03T07:42:47.290Z,12.10
2018-11-03T07:48:06.506Z,13.97
2018-11-03T07:53:25.009Z,15.90
2018-11-03T07:58:43.659Z,18.13
2018-11-03T08:04:02.398Z,18.30
2018-11-03T08:09:20.968Z,16.10
2018-11-03T08:14:39.626Z,15.97
2018-11-03T08:19:58.151Z,15.60
2018-11-03T08:25:16.726Z,15.88
2018-11-03T08:30:35.249Z,19.00
2018-11-03T08:35:53.772Z,17.82
2018-11-03T08:41:12.317Z,18.27
2018-11-03T08:46:30.870Z,21.97
2018-11-03T08:51:49.403Z,20.33
2018-11-03T08:57:07.874Z,22.77
2018-11-03T09:02:26.427Z,21.27
2018-11-03T09:07:44.935Z,21.37
2018-11-03T09:13:03.547Z,24.20
2018-11-03T09:18:22.122Z,22.80
2018-11-03T09:23:41.444Z,23.07
2018-11-03T09:29:00.093Z,23.77
2018-11-03T09:34:18.663Z,22.53
2018-11-03T09:39:37.235Z,25.07
2018-11-03T09:44:55.776Z,26.30
2018-11-03T09:50:15.409Z,24.52
2018-11-03T09:55:33.940Z,25.43
2018-11-03T10:00:52.510Z,25.37
2018-11-03T10:06:11.798Z,21.93
2018-11-03T10:11:30.288Z,19.67
2018-11-03T10:16:48.856Z,21.17
2018-11-03T10:22:07.408Z,20.73
2018-11-03T10:27:25.905Z,20.97
2018-11-03T10:32:44.571Z,18.03
2018-11-03T10:38:03.122Z,17.40
2018-11-03T10:43:21.659Z,16.40
2018-11-03T10:48:40.243Z,13.20
2018-11-03T10:53:58.751Z,15.50
2018-11-03T10:59:17.271Z,14.37
2018-11-03T11:04:41.110Z,13.20
2018-11-03T11:10:04.752Z,12.33
2018-11-03T11:15:23.292Z,11.93
2018-11-03T11:20:41.787Z,8.88
2018-11-03T11:26:00.373Z,11.67
2018-11-03T11:31:19.004Z,9.27
2018-11-03T11:36:37.473Z,6.30
2018-11-03T11:41:55.986Z,6.20
2018-11-03T11:47:14.626Z,6.70
2018-11-03T11:52:33.234Z,8.00
2018-11-03T11:57:51.947Z,7.40
2018-11-03T12:03:10.628Z,6.07
2018-11-03T12:08:29.127Z,6.97
2018-11-03T12:13:47.626Z,6.77
2018-11-03T12:19:06.309Z,6.63
2018-11-03T12:24:25.482Z,6.37
2018-11-03T12:29:43.968Z,6.55
2018-11-03T12:35:03.360Z,6.07
2018-11-03T12:40:21.880Z,4.37
2018-11-03T12:45:40.376Z,4.00
2018-11-03T12:50:59.003Z,4.33
2018-11-03T12:56:17.507Z,4.13
2018-11-03T13:01:36.114Z,3.77
2018-11-03T13:06:54.591Z,4.07
2018-11-03T13:12:13.146Z,5.37
2018-11-03T13:17:31.623Z,3.87
2018-11-03T13:22:50.300Z,4.03
2018-11-03T13:28:08.238Z,3.73
2018-11-03T13:33:26.859Z,4.37
2018-11-03T13:38:45.321Z,3.77
2018-11-03T13:44:03.838Z,4.23
2018-11-03T13:49:22.295Z,4.20
2018-11-03T13:54:40.765Z,3.47
2018-11-03T13:59:59.248Z,3.70
2018-11-03T14:05:17.862Z,4.30
2018-11-03T14:10:36.335Z,3.93
2018-11-03T14:15:54.839Z,3.67
2018-11-03T14:21:13.423Z,4.33
2018-11-03T14:26:31.979Z,3.83
2018-11-03T14:31:50.525Z,3.60
2018-11-03T14:37:09.669Z,3.60
2018-11-03T14:42:28.197Z,3.53
2018-11-03T14:47:46.723Z,3.93
2018-11-03T14:53:05.292Z,3.50
2018-11-03T14:58:23.817Z,3.73
2018-11-03T15:03:42.761Z,3.47
2018-11-03T15:09:01.323Z,3.50
2018-11-03T15:14:19.965Z,3.60
2018-11-03T15:19:38.634Z,3.70
2018-11-03T15:24:57.198Z,3.20
2018-11-03T15:30:15.979Z,3.20
2018-11-03T15:35:34.515Z,3.13
2018-11-03T15:40:53.602Z,3.43
2018-11-03T15:46:12.112Z,3.70
2018-11-03T15:51:30.610Z,3.97
2018-11-03T15:56:49.215Z,3.77
2018-11-03T16:02:07.740Z,4.00
2018-11-03T16:07:26.279Z,5.10
2018-11-03T16:12:44.880Z,5.00
2018-11-03T16:18:03.410Z,4.33
2018-11-03T16:23:22.130Z,4.60
2018-11-03T16:28:41.384Z,4.60
2018-11-03T16:34:00.596Z,4.17
2018-11-03T16:39:19.144Z,4.67
2018-11-03T16:44:37.780Z,4.40
2018-11-03T16:49:56.267Z,4.03
2018-11-03T16:55:15.494Z,4.47
2018-11-03T17:00:33.952Z,4.37
2018-11-03T17:05:52.493Z,5.30
2018-11-03T17:11:11.783Z,6.13
2018-11-03T17:16:30.347Z,6.57
2018-11-03T17:21:48.870Z,6.30
2018-11-03T17:27:07.334Z,5.60
2018-11-03T17:32:25.887Z,5.20
2018-11-03T17:37:44.875Z,5.07
2018-11-03T17:43:03.427Z,5.03
2018-11-03T17:48:21.950Z,5.17
2018-11-03T17:53:40.529Z,10.03
2018-11-03T17:58:59.060Z,7.67
2018-11-03T18:04:17.725Z,9.20
2018-11-03T18:09:36.928Z,9.07
2018-11-03T18:14:55.499Z,7.33
2018-11-03T18:20:13.981Z,11.83
2018-11-03T18:25:32.613Z,10.20
2018-11-03T18:30:51.186Z,9.50
2018-11-03T18:36:09.815Z,10.00
2018-11-03T18:41:28.543Z,9.37
2018-11-03T18:46:47.232Z,12.70
2018-11-03T18:52:05.943Z,10.23
2018-11-03T18:57:24.435Z,10.40
2018-11-03T19:02:42.934Z,9.40
2018-11-03T19:08:01.529Z,9.10
2018-11-03T19:13:20.111Z,10.17
2018-11-03T19:18:38.666Z,10.30
2018-11-03T19:23:57.274Z,11.27
2018-11-03T19:29:15.772Z,12.27
2018-11-03T19:34:34.384Z,10.43
2018-11-03T19:39:53.057Z,11.10
2018-11-03T19:45:12.340Z,10.72
2018-11-03T19:50:30.911Z,9.73
2018-11-03T19:55:49.591Z,10.00
2018-11-03T20:01:08.052Z,18.20
2018-11-03T20:06:26.569Z,19.57
2018-11-03T20:11:45.138Z,18.67
2018-11-03T20:17:03.681Z,21.47
2018-11-03T20:22:22.218Z,15.40
2018-11-03T20:27:40.815Z,17.93
2018-11-03T20:32:59.366Z,19.40
2018-11-03T20:38:17.897Z,20.23
2018-11-03T20:43:36.524Z,17.67
2018-11-03T20:48:55.123Z,13.87
2018-11-03T20:54:13.644Z,13.43
2018-11-03T20:59:32.174Z,11.47
2018-11-03T21:04:50.684Z,10.40
2018-11-03T21:10:09.288Z,11.73
2018-11-03T21:15:27.965Z,11.20
2018-11-03T21:20:46.670Z,10.53
2018-11-03T21:26:05.245Z,10.77
2018-11-03T21:31:23.739Z,10.60
2018-11-03T21:36:42.255Z,10.30
2018-11-03T21:42:01.029Z,9.43
2018-11-03T21:47:19.607Z,9.47
2018-11-03T21:52:38.144Z,8.80
2018-11-03T21:57:56.653Z,8.67
2018-11-03T22:03:15.238Z,8.67
2018-11-03T22:08:33.731Z,8.60
2018-11-03T22:13:52.452Z,8.73
2018-11-03T22:19:10.990Z,8.37
2018-11-03T22:24:29.880Z,8.00
2018-11-03T22:29:48.486Z,7.70
2018-11-03T22:35:07.587Z,9.37
2018-11-03T22:40:26.140Z,9.27
2018-11-03T22:45:44.661Z,9.53
2018-11-03T22:51:03.245Z,9.27
2018-11-03T22:56:21.680Z,9.20
2018-11-03T23:01:41.291Z,10.70
2018-11-03T23:07:01.279Z,9.93
2018-11-03T23:12:19.764Z,10.90
2018-11-03T23:17:38.279Z,9.83
2018-11-03T23:22:56.950Z,10.23
2018-11-03T23:28:15.488Z,14.40
2018-11-03T23:33:34.116Z,15.03
2018-11-03T23:38:52.647Z,13.63
2018-11-03T23:44:11.476Z,14.40
2018-11-03T23:49:29.957Z,13.40
2018-11-03T23:54:48.507Z,13.67
